createdAt,value
2023-03-02T00:03:06.362Z,17.70
2023-03-02T00:08:10.208Z,17.60
2023-03-02T00:13:16.593Z,17.90
2023-03-02T00:18:19.427Z,17.56
2023-03-02T00:23:22.309Z,17.70
2023-03-02T00:28:26.785Z,17.67
2023-03-02T00:33:30.553Z,17.63
2023-03-02T00:38:33.408Z,17.67
2023-03-02T00:43:37.554Z,17.63
2023-03-02T00:48:40.563Z,17.71
2023-03-02T00:53:44.890Z,17.64
2023-03-02T00:58:50.216Z,17.79
2023-03-02T01:03:53.777Z,17.61
2023-03-02T01:08:56.593Z,17.58
2023-03-02T01:14:01.660Z,17.81
2023-03-02T01:19:04.661Z,17.65
2023-03-02T01:24:07.816Z,17.68
2023-03-02T01:29:12.050Z,17.57
2023-03-02T01:34:15.038Z,17.91
2023-03-02T01:39:17.917Z,17.69
2023-03-02T01:44:36.772Z,17.78
2023-03-02T01:49:39.966Z,17.66
2023-03-02T01:54:43.995Z,17.72
2023-03-02T01:59:49.274Z,17.60
2023-03-02T02:04:52.582Z,17.66
2023-03-02T02:09:56.705Z,17.71
2023-03-02T02:15:01.493Z,17.73
2023-03-02T02:20:09.935Z,17.66
2023-03-02T02:25:19.762Z,17.69
2023-03-02T02:30:25.506Z,17.79
2023-03-02T02:35:30.380Z,17.70
2023-03-02T02:40:47.464Z,17.58
2023-03-02T02:45:53.878Z,17.63
2023-03-02T02:51:00.445Z,17.70
2023-03-02T02:56:04.282Z,17.79
2023-03-02T03:01:09.141Z,17.72
2023-03-02T03:06:17.390Z,17.74
2023-03-02T03:11:23.410Z,17.45
2023-03-02T03:16:28.603Z,17.66
2023-03-02T03:21:31.451Z,17.86
2023-03-02T03:26:34.484Z,17.78
2023-03-02T03:31:38.857Z,17.50
2023-03-02T03:36:43.297Z,17.68
2023-03-02T03:41:46.452Z,17.60
2023-03-02T03:46:50.647Z,17.56
2023-03-02T03:51:53.695Z,17.69
2023-03-02T03:56:56.534Z,17.86
2023-03-02T04:02:03.332Z,17.61
2023-03-02T04:07:06.146Z,17.69
2023-03-02T04:12:10.016Z,17.84
2023-03-02T04:17:14.213Z,17.77
2023-03-02T04:22:17.567Z,17.66
2023-03-02T04:27:21.040Z,17.84
2023-03-02T04:32:25.324Z,17.84
2023-03-02T04:37:28.234Z,17.72
2023-03-02T04:42:31.164Z,17.96
2023-03-02T04:47:35.732Z,17.91
2023-03-02T04:52:38.565Z,17.74
2023-03-02T04:57:41.473Z,17.80
2023-03-02T05:02:47.291Z,17.82
2023-03-02T05:07:50.714Z,17.63
2023-03-02T05:12:58.088Z,17.90
2023-03-02T05:18:03.153Z,17.61
2023-03-02T05:23:08.783Z,17.93
2023-03-02T05:28:11.720Z,17.79
2023-03-02T05:33:16.659Z,17.83
2023-03-02T05:38:19.505Z,17.88
2023-03-02T05:43:23.477Z,17.79
2023-03-02T05:48:28.050Z,17.89
2023-03-02T05:53:30.876Z,17.83
2023-03-02T05:58:33.699Z,17.76
2023-03-02T06:03:38.512Z,17.77
2023-03-02T06:08:41.298Z,18.03
2023-03-02T06:13:44.394Z,17.92
2023-03-02T06:18:48.572Z,17.87
2023-03-02T06:23:51.987Z,17.92
2023-03-02T06:28:54.843Z,17.97
2023-03-02T06:33:59.043Z,18.49
2023-03-02T06:39:01.889Z,18.63
2023-03-02T06:44:04.893Z,18.50
2023-03-02T06:49:10.391Z,18.77
2023-03-02T06:54:13.706Z,18.54
2023-03-02T06:59:17.281Z,18.38
2023-03-02T07:04:21.646Z,18.51
2023-03-02T07:09:27.032Z,18.31
2023-03-02T07:14:29.883Z,18.34
2023-03-02T07:19:34.049Z,18.21
2023-03-02T07:24:38.318Z,18.35
2023-03-02T07:29:41.700Z,18.06
2023-03-02T07:34:45.864Z,18.18
2023-03-02T07:39:50.104Z,18.09
2023-03-02T07:44:53.800Z,18.25
2023-03-02T07:49:59.035Z,18.21
2023-03-02T07:55:01.880Z,18.18
2023-03-02T08:00:06.304Z,18.14
2023-03-02T08:05:12.776Z,18.09
2023-03-02T08:10:15.891Z,17.90
2023-03-02T08:15:20.065Z,17.94
2023-03-02T08:20:24.241Z,18.14
2023-03-02T08:25:28.070Z,18.16
2023-03-02T08:30:30.932Z,18.15
2023-03-02T08:35:36.416Z,17.94
2023-03-02T08:40:39.322Z,17.98
2023-03-02T08:45:42.269Z,18.04
2023-03-02T08:50:46.498Z,17.93
2023-03-02T08:55:49.298Z,17.99
2023-03-02T09:00:52.325Z,17.83
2023-03-02T09:05:56.496Z,17.75
2023-03-02T09:10:59.361Z,17.96
2023-03-02T09:16:02.426Z,17.85
2023-03-02T09:21:07.223Z,17.84
2023-03-02T09:26:10.566Z,17.58
2023-03-02T09:31:13.999Z,17.78
2023-03-02T09:36:22.107Z,17.96
2023-03-02T09:41:57.477Z,17.83
2023-03-02T09:47:01.974Z,17.72
2023-03-02T09:52:14.842Z,17.91
2023-03-02T09:57:22.065Z,17.94
2023-03-02T10:02:28.784Z,17.83
2023-03-02T10:07:34.146Z,17.78
2023-03-02T10:12:52.398Z,17.86
2023-03-02T10:18:02.340Z,17.69
2023-03-02T10:23:16.091Z,18.01
2023-03-02T10:28:21.200Z,18.00
2023-03-02T10:33:24.269Z,17.96
2023-03-02T10:38:29.550Z,17.90
2023-03-02T10:43:38.256Z,17.77
2023-03-02T10:48:50.070Z,17.79
2023-03-02T10:54:05.772Z,17.86
2023-03-02T10:59:32.049Z,17.97
2023-03-02T11:04:35.039Z,17.81
2023-03-02T11:09:40.201Z,17.76
2023-03-02T11:14:43.656Z,18.04
2023-03-02T11:19:46.585Z,18.29
2023-03-02T11:24:54.036Z,18.12
2023-03-02T11:30:00.372Z,18.07
2023-03-02T11:35:05.961Z,18.00
2023-03-02T11:40:20.525Z,17.75
2023-03-02T11:45:27.138Z,17.65
2023-03-02T11:50:31.091Z,17.92
2023-03-02T11:55:40.619Z,17.93
2023-03-02T12:00:44.019Z,18.08
2023-03-02T12:06:00.637Z,18.14
2023-03-02T12:11:08.080Z,18.12
2023-03-02T12:16:22.618Z,18.10
2023-03-02T12:21:27.066Z,17.82
2023-03-02T12:26:36.234Z,17.85
2023-03-02T12:31:45.772Z,17.79
2023-03-02T12:36:49.224Z,17.90
2023-03-02T12:42:12.463Z,17.85
2023-03-02T12:47:19.245Z,18.06
2023-03-02T12:52:32.049Z,17.91
2023-03-02T12:57:38.651Z,18.15
2023-03-02T13:02:47.091Z,18.13
2023-03-02T13:07:56.800Z,18.14
2023-03-02T13:13:01.685Z,18.22
2023-03-02T13:18:04.741Z,18.11
2023-03-02T13:23:08.470Z,18.01
2023-03-02T13:28:27.591Z,17.90
2023-03-02T13:33:32.090Z,18.07
2023-03-02T13:38:37.653Z,18.08
2023-03-02T13:43:41.979Z,18.16
2023-03-02T13:49:07.491Z,18.05
2023-03-02T13:54:18.151Z,18.07
2023-03-02T13:59:23.213Z,18.21
2023-03-02T14:04:26.190Z,17.91
2023-03-02T14:09:29.046Z,18.22
2023-03-02T14:14:36.496Z,18.18
2023-03-02T14:19:39.387Z,18.02
2023-03-02T14:24:42.574Z,18.27
2023-03-02T14:29:47.699Z,18.26
2023-03-02T14:34:50.578Z,17.86
2023-03-02T14:39:55.580Z,18.12
2023-03-02T14:45:01.706Z,17.90
2023-03-02T14:50:05.554Z,18.20
2023-03-02T14:55:14.456Z,18.03
2023-03-02T15:00:21.193Z,18.08
2023-03-02T15:05:24.066Z,18.10
2023-03-02T15:10:27.001Z,18.23
2023-03-02T15:15:31.194Z,17.98
2023-03-02T15:20:34.071Z,18.19
2023-03-02T15:25:36.896Z,17.88
2023-03-02T15:30:41.709Z,17.72
2023-03-02T15:35:45.125Z,16.21
2023-03-02T15:40:47.958Z,16.04
2023-03-02T15:45:53.240Z,15.81
2023-03-02T15:50:57.559Z,15.87
2023-03-02T15:56:00.680Z,16.19
2023-03-02T16:01:09.403Z,17.57
2023-03-02T16:06:13.428Z,17.29
2023-03-02T16:11:18.925Z,17.24
2023-03-02T16:16:23.475Z,17.67
2023-03-02T16:21:28.435Z,17.47
2023-03-02T16:26:32.349Z,17.55
2023-03-02T16:31:37.849Z,17.68
2023-03-02T16:36:41.975Z,17.49
2023-03-02T16:41:46.114Z,17.63
2023-03-02T16:46:50.555Z,18.20
2023-03-02T16:51:57.675Z,17.98
2023-03-02T16:57:00.509Z,18.37
2023-03-02T17:02:04.650Z,18.63
2023-03-02T17:07:07.523Z,18.38
2023-03-02T17:12:10.435Z,18.58
2023-03-02T17:17:14.631Z,18.81
2023-03-02T17:22:17.558Z,19.08
2023-03-02T17:27:25.312Z,18.65
2023-03-02T17:32:30.108Z,18.63
2023-03-02T17:37:33.206Z,18.88
2023-03-02T17:42:36.349Z,18.82
2023-03-02T17:47:41.345Z,19.00
2023-03-02T17:52:44.219Z,18.95
2023-03-02T17:57:47.070Z,19.34
2023-03-02T18:02:51.486Z,19.02
2023-03-02T18:07:54.623Z,19.14
2023-03-02T18:12:57.672Z,19.02
2023-03-02T18:18:02.464Z,19.06
2023-03-02T18:23:05.331Z,19.06
2023-03-02T18:28:08.315Z,19.11
2023-03-02T18:33:12.474Z,19.17
2023-03-02T18:38:15.411Z,18.97
2023-03-02T18:43:18.202Z,19.11
2023-03-02T18:48:23.527Z,18.89
2023-03-02T18:53:26.885Z,19.19
2023-03-02T18:58:34.133Z,19.13
2023-03-02T19:03:38.643Z,19.10
2023-03-02T19:08:41.567Z,19.12
2023-03-02T19:13:44.376Z,19.04
2023-03-02T19:18:48.662Z,19.36
2023-03-02T19:23:51.763Z,19.18
2023-03-02T19:28:54.933Z,19.03
2023-03-02T19:33:59.441Z,18.87
2023-03-02T19:39:02.244Z,19.05
2023-03-02T19:44:06.041Z,19.01
2023-03-02T19:49:11.232Z,19.04
2023-03-02T19:54:14.194Z,19.28
2023-03-02T19:59:17.084Z,19.05
2023-03-02T20:04:21.278Z,19.03
2023-03-02T20:09:24.227Z,19.16
2023-03-02T20:14:33.720Z,19.04
2023-03-02T20:19:38.315Z,18.96
2023-03-02T20:24:41.485Z,19.43
2023-03-02T20:29:44.580Z,18.97
2023-03-02T20:34:49.071Z,19.01
2023-03-02T20:39:52.936Z,19.19
2023-03-02T20:44:56.723Z,19.03
2023-03-02T20:50:00.992Z,18.90
2023-03-02T20:55:04.782Z,19.21
2023-03-02T21:00:10.546Z,18.82
2023-03-02T21:05:15.463Z,19.10
2023-03-02T21:10:20.747Z,19.01
2023-03-02T21:15:26.918Z,18.88
2023-03-02T21:20:33.594Z,19.00
2023-03-02T21:25:36.432Z,19.02
2023-03-02T21:30:39.325Z,18.80
2023-03-02T21:35:46.401Z,18.69
2023-03-02T21:40:49.431Z,18.69
2023-03-02T21:45:52.438Z,18.78
2023-03-02T21:50:56.588Z,18.81
2023-03-02T21:56:01.754Z,18.83
2023-03-02T22:01:04.880Z,18.75
2023-03-02T22:06:09.079Z,19.00
2023-03-02T22:11:13.942Z,18.65
2023-03-02T22:16:19.323Z,18.75
2023-03-02T22:21:28.734Z,18.73
2023-03-02T22:26:33.306Z,18.82
2023-03-02T22:31:39.764Z,18.93
2023-03-02T22:36:43.985Z,18.92
2023-03-02T22:41:46.867Z,18.75
2023-03-02T22:46:49.853Z,18.63
2023-03-02T22:51:54.860Z,18.58
2023-03-02T22:56:58.273Z,18.85
2023-03-02T23:02:02.274Z,18.66
2023-03-02T23:07:14.273Z,18.53
2023-03-02T23:12:20.222Z,18.59
2023-03-02T23:17:27.710Z,18.71
2023-03-02T23:22:32.721Z,18.75
2023-03-02T23:27:35.831Z,18.47
2023-03-02T23:32:39.038Z,18.72
2023-03-02T23:37:43.590Z,18.47
2023-03-02T23:42:46.507Z,18.65
2023-03-02T23:47:49.352Z,18.45
2023-03-02T23:52:53.514Z,18.69
2023-03-02T23:57:57.416Z,18.37
